sensor_id;sensor_type;location;lat;lon;timestamp;P1;durP1;ratioP1;P2;durP2;ratioP2
11486;SDS011;10510;47.942;9.442;2023-01-19T00:00:14;16.00;;;7.03;;
11486;SDS011;10510;47.942;9.442;2023-01-19T00:02:16;17.90;;;6.72;;
11486;SDS011;10510;47.942;9.442;2023-01-19T00:04:16;14.57;;;7.45;;
11486;SDS011;10510;47.942;9.442;2023-01-19T00:06:17;17.65;;;7.50;;
11486;SDS011;10510;47.942;9.442;2023-01-19T00:08:17;14.70;;;7.07;;
11486;SDS011;10510;47.942;9.442;2023-01-19T00:10:17;15.65;;;7.50;;
11486;SDS011;10510;47.942;9.442;2023-01-19T00:12:18;15.90;;;7.53;;
11486;SDS011;10510;47.942;9.442;2023-01-19T00:14:18;15.80;;;7.20;;
11486;SDS011;10510;47.942;9.442;2023-01-19T00:16:19;14.95;;;7.45;;
11486;SDS011;10510;47.942;9.442;2023-01-19T00:18:21;20.67;;;8.02;;
11486;SDS011;10510;47.942;9.442;2023-01-19T00:20:22;19.42;;;6.63;;
11486;SDS011;10510;47.942;9.442;2023-01-19T00:22:22;18.52;;;6.65;;
11486;SDS011;10510;47.942;9.442;2023-01-19T00:24:22;22.23;;;8.13;;
11486;SDS011;10510;47.942;9.442;2023-01-19T00:26:23;12.55;;;6.75;;
11486;SDS011;10510;47.942;9.442;2023-01-19T00:28:23;13.40;;;7.22;;
11486;SDS011;10510;47.942;9.442;2023-01-19T00:30:23;12.85;;;6.85;;
11486;SDS011;10510;47.942;9.442;2023-01-19T00:32:23;14.85;;;7.38;;
11486;SDS011;10510;47.942;9.442;2023-01-19T00:34:24;17.92;;;6.85;;
11486;SDS011;10510;47.942;9.442;2023-01-19T00:36:24;16.75;;;7.28;;
11486;SDS011;10510;47.942;9.442;2023-01-19T00:38:25;16.60;;;7.53;;
11486;SDS011;10510;47.942;9.442;2023-01-19T00:40:25;19.58;;;7.72;;
11486;SDS011;10510;47.942;9.442;2023-01-19T00:42:25;14.65;;;7.13;;
11486;SDS011;10510;47.942;9.442;2023-01-19T00:44:43;17.77;;;6.88;;
11486;SDS011;10510;47.942;9.442;2023-01-19T00:46:43;14.85;;;7.03;;
11486;SDS011;10510;47.942;9.442;2023-01-19T00:48:43;17.45;;;7.25;;
11486;SDS011;10510;47.942;9.442;2023-01-19T00:50:44;13.55;;;7.03;;
11486;SDS011;10510;47.942;9.442;2023-01-19T00:52:44;13.35;;;7.32;;
11486;SDS011;10510;47.942;9.442;2023-01-19T00:54:45;13.95;;;7.82;;
11486;SDS011;10510;47.942;9.442;2023-01-19T00:56:45;14.05;;;7.40;;
11486;SDS011;10510;47.942;9.442;2023-01-19T00:58:45;16.42;;;7.05;;
11486;SDS011;10510;47.942;9.442;2023-01-19T01:00:45;16.40;;;8.55;;
11486;SDS011;10510;47.942;9.442;2023-01-19T01:02:46;16.17;;;8.10;;
11486;SDS011;10510;47.942;9.442;2023-01-19T01:04:48;16.10;;;7.50;;
11486;SDS011;10510;47.942;9.442;2023-01-19T01:06:53;19.52;;;7.25;;
11486;SDS011;10510;47.942;9.442;2023-01-19T01:08:53;15.93;;;7.80;;
11486;SDS011;10510;47.942;9.442;2023-01-19T01:10:54;14.82;;;7.18;;
11486;SDS011;10510;47.942;9.442;2023-01-19T01:12:55;16.45;;;7.20;;
11486;SDS011;10510;47.942;9.442;2023-01-19T01:14:55;12.65;;;7.53;;
11486;SDS011;10510;47.942;9.442;2023-01-19T01:16:55;16.13;;;7.40;;
11486;SDS011;10510;47.942;9.442;2023-01-19T01:18:56;16.33;;;7.28;;
11486;SDS011;10510;47.942;9.442;2023-01-19T01:20:59;17.05;;;8.00;;
11486;SDS011;10510;47.942;9.442;2023-01-19T01:23:06;15.38;;;7.38;;
11486;SDS011;10510;47.942;9.442;2023-01-19T01:25:06;14.48;;;7.70;;
11486;SDS011;10510;47.942;9.442;2023-01-19T01:27:06;12.98;;;6.90;;
11486;SDS011;10510;47.942;9.442;2023-01-19T01:29:07;19.70;;;7.60;;
11486;SDS011;10510;47.942;9.442;2023-01-19T01:31:07;17.48;;;7.50;;
11486;SDS011;10510;47.942;9.442;2023-01-19T01:33:07;15.55;;;7.63;;
11486;SDS011;10510;47.942;9.442;2023-01-19T01:35:08;15.98;;;7.07;;
11486;SDS011;10510;47.942;9.442;2023-01-19T01:37:09;16.08;;;6.95;;
11486;SDS011;10510;47.942;9.442;2023-01-19T01:39:10;16.88;;;7.57;;
11486;SDS011;10510;47.942;9.442;2023-01-19T01:41:10;15.85;;;7.35;;
11486;SDS011;10510;47.942;9.442;2023-01-19T01:43:11;15.45;;;7.03;;
11486;SDS011;10510;47.942;9.442;2023-01-19T01:45:24;13.07;;;6.85;;
11486;SDS011;10510;47.942;9.442;2023-01-19T01:47:41;15.45;;;6.63;;
11486;SDS011;10510;47.942;9.442;2023-01-19T01:49:44;12.85;;;6.47;;
11486;SDS011;10510;47.942;9.442;2023-01-19T01:51:50;12.68;;;6.28;;
11486;SDS011;10510;47.942;9.442;2023-01-19T01:56:03;12.05;;;6.38;;
11486;SDS011;10510;47.942;9.442;2023-01-19T01:58:08;15.02;;;6.63;;
11486;SDS011;10510;47.942;9.442;2023-01-19T02:00:10;12.45;;;6.20;;
11486;SDS011;10510;47.942;9.442;2023-01-19T02:02:17;13.18;;;6.70;;
11486;SDS011;10510;47.942;9.442;2023-01-19T02:04:39;14.30;;;7.32;;
11486;SDS011;10510;47.942;9.442;2023-01-19T02:06:51;12.73;;;6.43;;
11486;SDS011;10510;47.942;9.442;2023-01-19T02:09:09;14.48;;;7.35;;
11486;SDS011;10510;47.942;9.442;2023-01-19T02:11:29;14.95;;;6.68;;
11486;SDS011;10510;47.942;9.442;2023-01-19T02:13:49;16.70;;;7.63;;
11486;SDS011;10510;47.942;9.442;2023-01-19T02:15:50;12.82;;;7.13;;
11486;SDS011;10510;47.942;9.442;2023-01-19T02:17:53;14.70;;;7.32;;
11486;SDS011;10510;47.942;9.442;2023-01-19T02:19:53;12.18;;;6.43;;
11486;SDS011;10510;47.942;9.442;2023-01-19T02:21:55;14.80;;;6.22;;
11486;SDS011;10510;47.942;9.442;2023-01-19T02:24:01;15.63;;;7.10;;
11486;SDS011;10510;47.942;9.442;2023-01-19T02:26:02;14.23;;;7.35;;
11486;SDS011;10510;47.942;9.442;2023-01-19T02:28:03;18.27;;;7.22;;
11486;SDS011;10510;47.942;9.442;2023-01-19T02:30:04;13.48;;;6.53;;
11486;SDS011;10510;47.942;9.442;2023-01-19T02:32:05;13.70;;;6.28;;
11486;SDS011;10510;47.942;9.442;2023-01-19T02:34:07;12.48;;;5.78;;
11486;SDS011;10510;47.942;9.442;2023-01-19T02:36:10;16.25;;;6.70;;
11486;SDS011;10510;47.942;9.442;2023-01-19T02:38:14;17.90;;;6.78;;
11486;SDS011;10510;47.942;9.442;2023-01-19T02:40:17;13.02;;;6.45;;
11486;SDS011;10510;47.942;9.442;2023-01-19T02:42:29;13.10;;;6.47;;
11486;SDS011;10510;47.942;9.442;2023-01-19T02:44:31;10.55;;;5.85;;
11486;SDS011;10510;47.942;9.442;2023-01-19T02:46:34;11.50;;;6.13;;
11486;SDS011;10510;47.942;9.442;2023-01-19T02:48:34;14.23;;;6.90;;
11486;SDS011;10510;47.942;9.442;2023-01-19T02:52:37;16.80;;;7.15;;
11486;SDS011;10510;47.942;9.442;2023-01-19T02:54:40;23.80;;;9.10;;
11486;SDS011;10510;47.942;9.442;2023-01-19T03:06:26;14.90;;;6.75;;
11486;SDS011;10510;47.942;9.442;2023-01-19T03:13:10;14.57;;;6.55;;
11486;SDS011;10510;47.942;9.442;2023-01-19T03:15:49;14.18;;;7.13;;
11486;SDS011;10510;47.942;9.442;2023-01-19T03:17:50;13.48;;;6.28;;
11486;SDS011;10510;47.942;9.442;2023-01-19T03:19:53;12.02;;;6.35;;
11486;SDS011;10510;47.942;9.442;2023-01-19T03:21:54;15.30;;;6.55;;
11486;SDS011;10510;47.942;9.442;2023-01-19T03:23:59;14.95;;;6.72;;
11486;SDS011;10510;47.942;9.442;2023-01-19T03:26:02;12.90;;;6.78;;
11486;SDS011;10510;47.942;9.442;2023-01-19T03:28:04;17.65;;;7.40;;
11486;SDS011;10510;47.942;9.442;2023-01-19T03:30:14;14.40;;;6.38;;
11486;SDS011;10510;47.942;9.442;2023-01-19T03:32:20;14.20;;;6.90;;
11486;SDS011;10510;47.942;9.442;2023-01-19T03:34:24;12.68;;;7.20;;
11486;SDS011;10510;47.942;9.442;2023-01-19T03:36:40;16.58;;;6.57;;
11486;SDS011;10510;47.942;9.442;2023-01-19T03:38:43;13.18;;;6.22;;
11486;SDS011;10510;47.942;9.442;2023-01-19T03:40:47;14.15;;;5.88;;
11486;SDS011;10510;47.942;9.442;2023-01-19T03:42:48;12.57;;;6.10;;
11486;SDS011;10510;47.942;9.442;2023-01-19T03:44:49;12.18;;;6.20;;
11486;SDS011;10510;47.942;9.442;2023-01-19T03:46:54;14.27;;;6.70;;
11486;SDS011;10510;47.942;9.442;2023-01-19T03:48:57;11.35;;;5.63;;
11486;SDS011;10510;47.942;9.442;2023-01-19T03:51:01;15.15;;;6.85;;
11486;SDS011;10510;47.942;9.442;2023-01-19T03:53:10;14.77;;;6.85;;
11486;SDS011;10510;47.942;9.442;2023-01-19T03:55:12;14.27;;;6.18;;
11486;SDS011;10510;47.942;9.442;2023-01-19T03:57:13;20.08;;;6.75;;
11486;SDS011;10510;47.942;9.442;2023-01-19T03:59:13;13.13;;;6.18;;
11486;SDS011;10510;47.942;9.442;2023-01-19T04:01:16;16.27;;;6.82;;
11486;SDS011;10510;47.942;9.442;2023-01-19T04:03:21;18.90;;;7.50;;
11486;SDS011;10510;47.942;9.442;2023-01-19T04:05:22;16.52;;;6.75;;
11486;SDS011;10510;47.942;9.442;2023-01-19T04:07:22;15.18;;;7.28;;
11486;SDS011;10510;47.942;9.442;2023-01-19T04:09:23;18.08;;;8.18;;
11486;SDS011;10510;47.942;9.442;2023-01-19T04:11:24;13.90;;;7.30;;
11486;SDS011;10510;47.942;9.442;2023-01-19T04:13:24;14.80;;;7.65;;
11486;SDS011;10510;47.942;9.442;2023-01-19T04:15:27;15.05;;;7.72;;
11486;SDS011;10510;47.942;9.442;2023-01-19T04:17:28;19.38;;;7.72;;
11486;SDS011;10510;47.942;9.442;2023-01-19T04:19:30;19.75;;;7.65;;
11486;SDS011;10510;47.942;9.442;2023-01-19T04:21:30;19.08;;;7.68;;
11486;SDS011;10510;47.942;9.442;2023-01-19T04:23:31;13.82;;;7.05;;
11486;SDS011;10510;47.942;9.442;2023-01-19T04:25:32;18.00;;;7.88;;
11486;SDS011;10510;47.942;9.442;2023-01-19T04:27:32;20.45;;;7.57;;
11486;SDS011;10510;47.942;9.442;2023-01-19T04:29:33;21.70;;;9.05;;
11486;SDS011;10510;47.942;9.442;2023-01-19T04:31:33;23.13;;;10.13;;
11486;SDS011;10510;47.942;9.442;2023-01-19T04:33:34;25.15;;;12.07;;
11486;SDS011;10510;47.942;9.442;2023-01-19T04:35:34;33.35;;;11.25;;
11486;SDS011;10510;47.942;9.442;2023-01-19T04:37:35;26.35;;;12.05;;
11486;SDS011;10510;47.942;9.442;2023-01-19T04:39:35;34.47;;;11.73;;
11486;SDS011;10510;47.942;9.442;2023-01-19T04:41:35;29.23;;;12.73;;
11486;SDS011;10510;47.942;9.442;2023-01-19T04:43:36;33.30;;;12.75;;
11486;SDS011;10510;47.942;9.442;2023-01-19T04:45:36;31.25;;;13.57;;
11486;SDS011;10510;47.942;9.442;2023-01-19T04:47:37;28.10;;;11.82;;
11486;SDS011;10510;47.942;9.442;2023-01-19T04:49:37;25.77;;;11.18;;
11486;SDS011;10510;47.942;9.442;2023-01-19T04:51:37;25.00;;;11.27;;
11486;SDS011;10510;47.942;9.442;2023-01-19T04:53:38;27.58;;;10.88;;
11486;SDS011;10510;47.942;9.442;2023-01-19T04:55:38;22.98;;;9.52;;
11486;SDS011;10510;47.942;9.442;2023-01-19T04:57:38;26.25;;;10.18;;
11486;SDS011;10510;47.942;9.442;2023-01-19T04:59:39;20.52;;;9.27;;
11486;SDS011;10510;47.942;9.442;2023-01-19T05:01:39;19.45;;;10.52;;
11486;SDS011;10510;47.942;9.442;2023-01-19T05:03:39;21.83;;;9.38;;
11486;SDS011;10510;47.942;9.442;2023-01-19T05:05:39;20.58;;;8.73;;
11486;SDS011;10510;47.942;9.442;2023-01-19T05:07:40;27.63;;;9.48;;
11486;SDS011;10510;47.942;9.442;2023-01-19T05:09:42;20.98;;;9.60;;
11486;SDS011;10510;47.942;9.442;2023-01-19T05:11:42;20.58;;;9.80;;
11486;SDS011;10510;47.942;9.442;2023-01-19T05:13:42;22.65;;;9.18;;
11486;SDS011;10510;47.942;9.442;2023-01-19T05:15:43;23.02;;;9.20;;
11486;SDS011;10510;47.942;9.442;2023-01-19T05:17:43;24.95;;;9.93;;
11486;SDS011;10510;47.942;9.442;2023-01-19T05:19:43;21.50;;;8.80;;
11486;SDS011;10510;47.942;9.442;2023-01-19T05:21:43;21.85;;;10.25;;
11486;SDS011;10510;47.942;9.442;2023-01-19T05:23:44;29.40;;;12.23;;
11486;SDS011;10510;47.942;9.442;2023-01-19T05:25:44;34.95;;;13.68;;
11486;SDS011;10510;47.942;9.442;2023-01-19T05:27:44;31.85;;;12.95;;
11486;SDS011;10510;47.942;9.442;2023-01-19T05:29:45;30.25;;;12.68;;
11486;SDS011;10510;47.942;9.442;2023-01-19T05:31:45;27.77;;;12.05;;
11486;SDS011;10510;47.942;9.442;2023-01-19T05:33:46;27.42;;;10.55;;
11486;SDS011;10510;47.942;9.442;2023-01-19T05:35:48;29.00;;;11.25;;
11486;SDS011;10510;47.942;9.442;2023-01-19T05:37:49;26.50;;;11.13;;
11486;SDS011;10510;47.942;9.442;2023-01-19T05:39:50;25.65;;;11.15;;
11486;SDS011;10510;47.942;9.442;2023-01-19T05:41:50;24.38;;;10.88;;
11486;SDS011;10510;47.942;9.442;2023-01-19T05:43:50;32.97;;;11.77;;
11486;SDS011;10510;47.942;9.442;2023-01-19T05:45:51;25.42;;;10.88;;
11486;SDS011;10510;47.942;9.442;2023-01-19T05:47:51;39.30;;;11.00;;
11486;SDS011;10510;47.942;9.442;2023-01-19T05:49:53;25.55;;;11.40;;
11486;SDS011;10510;47.942;9.442;2023-01-19T05:51:54;28.50;;;12.10;;
11486;SDS011;10510;47.942;9.442;2023-01-19T05:53:54;30.67;;;11.05;;
11486;SDS011;10510;47.942;9.442;2023-01-19T05:55:58;22.42;;;10.52;;
11486;SDS011;10510;47.942;9.442;2023-01-19T05:58:02;24.63;;;10.50;;
11486;SDS011;10510;47.942;9.442;2023-01-19T06:00:03;22.67;;;10.63;;
11486;SDS011;10510;47.942;9.442;2023-01-19T06:02:04;25.77;;;10.88;;
11486;SDS011;10510;47.942;9.442;2023-01-19T06:04:05;22.60;;;10.13;;
11486;SDS011;10510;47.942;9.442;2023-01-19T06:06:05;26.63;;;10.13;;
11486;SDS011;10510;47.942;9.442;2023-01-19T06:08:05;25.23;;;10.55;;
11486;SDS011;10510;47.942;9.442;2023-01-19T06:10:06;22.60;;;9.35;;
11486;SDS011;10510;47.942;9.442;2023-01-19T06:12:07;22.27;;;10.18;;
11486;SDS011;10510;47.942;9.442;2023-01-19T06:14:08;21.05;;;9.40;;
11486;SDS011;10510;47.942;9.442;2023-01-19T06:16:09;22.85;;;9.82;;
11486;SDS011;10510;47.942;9.442;2023-01-19T06:18:10;41.10;;;17.30;;
11486;SDS011;10510;47.942;9.442;2023-01-19T06:20:11;42.00;;;17.83;;
11486;SDS011;10510;47.942;9.442;2023-01-19T06:22:13;36.47;;;14.65;;
11486;SDS011;10510;47.942;9.442;2023-01-19T06:24:13;45.75;;;18.05;;
11486;SDS011;10510;47.942;9.442;2023-01-19T06:26:13;35.00;;;14.85;;
11486;SDS011;10510;47.942;9.442;2023-01-19T06:28:13;59.35;;;20.73;;
11486;SDS011;10510;47.942;9.442;2023-01-19T06:30:14;36.10;;;15.45;;
11486;SDS011;10510;47.942;9.442;2023-01-19T06:32:14;32.35;;;13.27;;
11486;SDS011;10510;47.942;9.442;2023-01-19T06:34:14;53.90;;;21.98;;
11486;SDS011;10510;47.942;9.442;2023-01-19T06:36:14;34.75;;;15.23;;
11486;SDS011;10510;47.942;9.442;2023-01-19T06:38:15;35.40;;;17.27;;
11486;SDS011;10510;47.942;9.442;2023-01-19T06:40:17;50.05;;;20.98;;
11486;SDS011;10510;47.942;9.442;2023-01-19T06:42:17;28.90;;;12.35;;
11486;SDS011;10510;47.942;9.442;2023-01-19T06:44:18;28.48;;;12.65;;
11486;SDS011;10510;47.942;9.442;2023-01-19T06:46:18;60.35;;;20.33;;
11486;SDS011;10510;47.942;9.442;2023-01-19T06:48:18;46.00;;;15.93;;
11486;SDS011;10510;47.942;9.442;2023-01-19T06:50:19;38.95;;;15.55;;
11486;SDS011;10510;47.942;9.442;2023-01-19T06:52:19;39.20;;;14.77;;
11486;SDS011;10510;47.942;9.442;2023-01-19T06:54:19;45.83;;;15.68;;
11486;SDS011;10510;47.942;9.442;2023-01-19T06:56:20;53.55;;;16.02;;
11486;SDS011;10510;47.942;9.442;2023-01-19T06:58:21;38.80;;;15.00;;
11486;SDS011;10510;47.942;9.442;2023-01-19T07:00:21;29.23;;;11.35;;
11486;SDS011;10510;47.942;9.442;2023-01-19T07:02:22;25.80;;;11.82;;
11486;SDS011;10510;47.942;9.442;2023-01-19T07:04:22;47.72;;;15.07;;
11486;SDS011;10510;47.942;9.442;2023-01-19T07:06:23;36.38;;;13.85;;
11486;SDS011;10510;47.942;9.442;2023-01-19T07:08:23;56.25;;;16.95;;
11486;SDS011;10510;47.942;9.442;2023-01-19T07:10:23;32.05;;;13.60;;
11486;SDS011;10510;47.942;9.442;2023-01-19T07:12:24;79.07;;;23.27;;
11486;SDS011;10510;47.942;9.442;2023-01-19T07:14:24;46.75;;;20.42;;
11486;SDS011;10510;47.942;9.442;2023-01-19T07:16:30;38.10;;;16.55;;
11486;SDS011;10510;47.942;9.442;2023-01-19T07:18:30;33.53;;;16.15;;
11486;SDS011;10510;47.942;9.442;2023-01-19T07:20:31;32.10;;;14.52;;
11486;SDS011;10510;47.942;9.442;2023-01-19T07:22:31;28.08;;;13.05;;
11486;SDS011;10510;47.942;9.442;2023-01-19T07:24:31;32.97;;;12.73;;
11486;SDS011;10510;47.942;9.442;2023-01-19T07:26:33;27.92;;;11.38;;
11486;SDS011;10510;47.942;9.442;2023-01-19T07:28:34;26.90;;;11.55;;
11486;SDS011;10510;47.942;9.442;2023-01-19T07:30:35;26.05;;;11.55;;
11486;SDS011;10510;47.942;9.442;2023-01-19T07:32:36;21.70;;;9.95;;
11486;SDS011;10510;47.942;9.442;2023-01-19T07:34:36;27.17;;;12.48;;
11486;SDS011;10510;47.942;9.442;2023-01-19T07:36:37;29.52;;;12.45;;
11486;SDS011;10510;47.942;9.442;2023-01-19T07:38:37;28.30;;;12.30;;
11486;SDS011;10510;47.942;9.442;2023-01-19T07:40:37;27.63;;;11.55;;
11486;SDS011;10510;47.942;9.442;2023-01-19T07:42:37;26.95;;;10.90;;
11486;SDS011;10510;47.942;9.442;2023-01-19T07:44:38;24.40;;;10.05;;
11486;SDS011;10510;47.942;9.442;2023-01-19T07:46:38;26.70;;;11.93;;
11486;SDS011;10510;47.942;9.442;2023-01-19T07:48:38;40.50;;;15.30;;
11486;SDS011;10510;47.942;9.442;2023-01-19T07:50:39;28.02;;;12.27;;
11486;SDS011;10510;47.942;9.442;2023-01-19T07:52:39;31.63;;;13.32;;
11486;SDS011;10510;47.942;9.442;2023-01-19T07:54:39;29.98;;;12.35;;
11486;SDS011;10510;47.942;9.442;2023-01-19T07:56:40;33.72;;;13.13;;
11486;SDS011;10510;47.942;9.442;2023-01-19T07:58:40;22.35;;;10.60;;
11486;SDS011;10510;47.942;9.442;2023-01-19T08:00:41;25.10;;;10.10;;
11486;SDS011;10510;47.942;9.442;2023-01-19T08:02:41;23.33;;;10.57;;
11486;SDS011;10510;47.942;9.442;2023-01-19T08:04:41;27.50;;;11.80;;
11486;SDS011;10510;47.942;9.442;2023-01-19T08:06:42;30.23;;;12.52;;
11486;SDS011;10510;47.942;9.442;2023-01-19T08:08:44;34.97;;;15.23;;
11486;SDS011;10510;47.942;9.442;2023-01-19T08:10:45;26.67;;;12.18;;
11486;SDS011;10510;47.942;9.442;2023-01-19T08:12:48;29.42;;;12.88;;
11486;SDS011;10510;47.942;9.442;2023-01-19T08:14:49;28.20;;;13.05;;
11486;SDS011;10510;47.942;9.442;2023-01-19T08:16:49;25.50;;;11.55;;
11486;SDS011;10510;47.942;9.442;2023-01-19T08:18:49;28.00;;;11.60;;
11486;SDS011;10510;47.942;9.442;2023-01-19T08:20:49;28.00;;;12.68;;
11486;SDS011;10510;47.942;9.442;2023-01-19T08:22:50;29.40;;;12.82;;
11486;SDS011;10510;47.942;9.442;2023-01-19T08:24:51;39.97;;;14.75;;
11486;SDS011;10510;47.942;9.442;2023-01-19T08:26:54;27.33;;;12.18;;
11486;SDS011;10510;47.942;9.442;2023-01-19T08:28:59;26.45;;;12.13;;
11486;SDS011;10510;47.942;9.442;2023-01-19T08:31:01;29.83;;;11.68;;
11486;SDS011;10510;47.942;9.442;2023-01-19T08:33:01;29.50;;;12.30;;
11486;SDS011;10510;47.942;9.442;2023-01-19T08:35:07;27.73;;;11.85;;
11486;SDS011;10510;47.942;9.442;2023-01-19T08:37:07;26.55;;;11.80;;
11486;SDS011;10510;47.942;9.442;2023-01-19T08:39:08;30.95;;;12.52;;
11486;SDS011;10510;47.942;9.442;2023-01-19T08:41:11;31.98;;;12.93;;
11486;SDS011;10510;47.942;9.442;2023-01-19T08:43:15;25.02;;;11.88;;
11486;SDS011;10510;47.942;9.442;2023-01-19T08:45:16;32.70;;;13.60;;
11486;SDS011;10510;47.942;9.442;2023-01-19T08:47:16;29.30;;;13.00;;
11486;SDS011;10510;47.942;9.442;2023-01-19T08:49:16;34.63;;;14.55;;
11486;SDS011;10510;47.942;9.442;2023-01-19T08:51:17;32.67;;;12.38;;
11486;SDS011;10510;47.942;9.442;2023-01-19T08:53:18;33.72;;;13.55;;
11486;SDS011;10510;47.942;9.442;2023-01-19T08:55:20;27.80;;;12.15;;
11486;SDS011;10510;47.942;9.442;2023-01-19T08:57:20;27.75;;;12.82;;
11486;SDS011;10510;47.942;9.442;2023-01-19T08:59:20;22.83;;;10.48;;
11486;SDS011;10510;47.942;9.442;2023-01-19T09:01:20;20.48;;;9.77;;
11486;SDS011;10510;47.942;9.442;2023-01-19T09:03:21;24.48;;;9.68;;
11486;SDS011;10510;47.942;9.442;2023-01-19T09:05:24;20.35;;;10.18;;
11486;SDS011;10510;47.942;9.442;2023-01-19T09:07:24;19.45;;;9.63;;
11486;SDS011;10510;47.942;9.442;2023-01-19T09:09:24;19.40;;;9.90;;
11486;SDS011;10510;47.942;9.442;2023-01-19T09:11:24;19.35;;;8.98;;
11486;SDS011;10510;47.942;9.442;2023-01-19T09:13:26;15.23;;;8.23;;
11486;SDS011;10510;47.942;9.442;2023-01-19T09:15:26;18.27;;;8.18;;
11486;SDS011;10510;47.942;9.442;2023-01-19T09:17:27;16.00;;;8.05;;
11486;SDS011;10510;47.942;9.442;2023-01-19T09:19:27;14.05;;;8.07;;
11486;SDS011;10510;47.942;9.442;2023-01-19T09:21:27;15.98;;;8.70;;
11486;SDS011;10510;47.942;9.442;2023-01-19T09:23:28;18.08;;;8.38;;
11486;SDS011;10510;47.942;9.442;2023-01-19T09:25:28;13.93;;;8.18;;
11486;SDS011;10510;47.942;9.442;2023-01-19T09:27:29;15.98;;;7.93;;
11486;SDS011;10510;47.942;9.442;2023-01-19T09:29:29;19.30;;;8.57;;
11486;SDS011;10510;47.942;9.442;2023-01-19T09:31:29;19.48;;;8.00;;
11486;SDS011;10510;47.942;9.442;2023-01-19T09:33:30;14.65;;;8.45;;
11486;SDS011;10510;47.942;9.442;2023-01-19T09:35:31;15.50;;;7.22;;
11486;SDS011;10510;47.942;9.442;2023-01-19T09:37:34;16.98;;;8.05;;
11486;SDS011;10510;47.942;9.442;2023-01-19T09:39:34;14.10;;;6.35;;
11486;SDS011;10510;47.942;9.442;2023-01-19T09:41:34;16.17;;;7.32;;
11486;SDS011;10510;47.942;9.442;2023-01-19T09:43:41;14.27;;;7.60;;
11486;SDS011;10510;47.942;9.442;2023-01-19T09:48:25;19.58;;;12.98;;
11486;SDS011;10510;47.942;9.442;2023-01-19T09:50:36;19.40;;;9.18;;
11486;SDS011;10510;47.942;9.442;2023-01-19T09:52:46;14.27;;;6.75;;
11486;SDS011;10510;47.942;9.442;2023-01-19T09:54:55;13.18;;;6.47;;
11486;SDS011;10510;47.942;9.442;2023-01-19T09:56:57;13.90;;;6.07;;
11486;SDS011;10510;47.942;9.442;2023-01-19T09:58:57;14.80;;;6.80;;
11486;SDS011;10510;47.942;9.442;2023-01-19T10:01:02;12.45;;;6.35;;
11486;SDS011;10510;47.942;9.442;2023-01-19T10:03:15;16.77;;;6.97;;
11486;SDS011;10510;47.942;9.442;2023-01-19T10:05:20;12.98;;;6.80;;
11486;SDS011;10510;47.942;9.442;2023-01-19T10:07:45;12.38;;;6.97;;
11486;SDS011;10510;47.942;9.442;2023-01-19T10:10:03;11.45;;;6.20;;
11486;SDS011;10510;47.942;9.442;2023-01-19T10:14:41;14.63;;;7.63;;
11486;SDS011;10510;47.942;9.442;2023-01-19T10:19:46;20.35;;;7.25;;
11486;SDS011;10510;47.942;9.442;2023-01-19T10:21:52;11.10;;;6.50;;
11486;SDS011;10510;47.942;9.442;2023-01-19T10:24:04;12.43;;;7.22;;
11486;SDS011;10510;47.942;9.442;2023-01-19T10:26:14;10.82;;;5.88;;
11486;SDS011;10510;47.942;9.442;2023-01-19T10:28:26;9.85;;;5.90;;
11486;SDS011;10510;47.942;9.442;2023-01-19T10:30:27;9.85;;;5.53;;
11486;SDS011;10510;47.942;9.442;2023-01-19T10:32:30;14.30;;;6.07;;
11486;SDS011;10510;47.942;9.442;2023-01-19T10:34:34;17.20;;;7.82;;
11486;SDS011;10510;47.942;9.442;2023-01-19T10:36:35;11.00;;;5.50;;
11486;SDS011;10510;47.942;9.442;2023-01-19T10:38:37;11.93;;;6.13;;
11486;SDS011;10510;47.942;9.442;2023-01-19T10:42:47;12.80;;;4.82;;
11486;SDS011;10510;47.942;9.442;2023-01-19T10:44:47;11.95;;;4.55;;
11486;SDS011;10510;47.942;9.442;2023-01-19T10:46:48;19.23;;;5.55;;
11486;SDS011;10510;47.942;9.442;2023-01-19T10:48:50;11.75;;;5.20;;
11486;SDS011;10510;47.942;9.442;2023-01-19T10:51:01;9.38;;;5.13;;
11486;SDS011;10510;47.942;9.442;2023-01-19T10:53:03;15.80;;;5.07;;
11486;SDS011;10510;47.942;9.442;2023-01-19T10:55:05;11.52;;;4.85;;
11486;SDS011;10510;47.942;9.442;2023-01-19T10:57:07;10.68;;;5.07;;
11486;SDS011;10510;47.942;9.442;2023-01-19T10:59:27;15.60;;;4.93;;
11486;SDS011;10510;47.942;9.442;2023-01-19T11:01:30;9.10;;;4.57;;
11486;SDS011;10510;47.942;9.442;2023-01-19T11:03:34;19.00;;;6.40;;
11486;SDS011;10510;47.942;9.442;2023-01-19T11:05:34;8.38;;;4.80;;
11486;SDS011;10510;47.942;9.442;2023-01-19T11:07:35;17.40;;;5.82;;
11486;SDS011;10510;47.942;9.442;2023-01-19T11:09:35;10.35;;;5.00;;
11486;SDS011;10510;47.942;9.442;2023-01-19T11:11:46;11.00;;;4.30;;
11486;SDS011;10510;47.942;9.442;2023-01-19T11:14:06;8.85;;;3.95;;
11486;SDS011;10510;47.942;9.442;2023-01-19T11:16:15;11.05;;;4.05;;
11486;SDS011;10510;47.942;9.442;2023-01-19T11:18:28;17.60;;;4.60;;
11486;SDS011;10510;47.942;9.442;2023-01-19T11:20:34;8.75;;;4.47;;
11486;SDS011;10510;47.942;9.442;2023-01-19T11:22:49;8.43;;;4.72;;
11486;SDS011;10510;47.942;9.442;2023-01-19T11:25:24;6.22;;;3.53;;
11486;SDS011;10510;47.942;9.442;2023-01-19T11:27:31;8.13;;;4.22;;
11486;SDS011;10510;47.942;9.442;2023-01-19T11:29:35;12.32;;;4.32;;
11486;SDS011;10510;47.942;9.442;2023-01-19T11:31:36;10.63;;;4.38;;
11486;SDS011;10510;47.942;9.442;2023-01-19T11:33:40;8.32;;;4.15;;
11486;SDS011;10510;47.942;9.442;2023-01-19T11:35:41;6.65;;;3.63;;
11486;SDS011;10510;47.942;9.442;2023-01-19T11:37:42;10.40;;;5.63;;
11486;SDS011;10510;47.942;9.442;2023-01-19T11:39:46;8.80;;;4.47;;
11486;SDS011;10510;47.942;9.442;2023-01-19T11:41:48;9.48;;;3.90;;
11486;SDS011;10510;47.942;9.442;2023-01-19T11:43:51;9.27;;;4.60;;
11486;SDS011;10510;47.942;9.442;2023-01-19T11:45:55;8.68;;;3.90;;
11486;SDS011;10510;47.942;9.442;2023-01-19T11:47:56;9.43;;;4.03;;
11486;SDS011;10510;47.942;9.442;2023-01-19T11:50:20;7.78;;;3.15;;
11486;SDS011;10510;47.942;9.442;2023-01-19T11:54:54;9.90;;;3.90;;
11486;SDS011;10510;47.942;9.442;2023-01-19T11:56:58;9.02;;;4.03;;
11486;SDS011;10510;47.942;9.442;2023-01-19T11:58:59;8.75;;;3.83;;
11486;SDS011;10510;47.942;9.442;2023-01-19T12:05:21;8.40;;;4.38;;
11486;SDS011;10510;47.942;9.442;2023-01-19T12:07:31;8.93;;;4.05;;
11486;SDS011;10510;47.942;9.442;2023-01-19T12:09:40;9.07;;;4.18;;
11486;SDS011;10510;47.942;9.442;2023-01-19T12:11:45;16.92;;;4.68;;
11486;SDS011;10510;47.942;9.442;2023-01-19T12:13:49;19.65;;;7.57;;
11486;SDS011;10510;47.942;9.442;2023-01-19T12:15:53;12.85;;;4.65;;
11486;SDS011;10510;47.942;9.442;2023-01-19T12:17:59;8.70;;;4.32;;
11486;SDS011;10510;47.942;9.442;2023-01-19T12:22:23;11.02;;;4.32;;
11486;SDS011;10510;47.942;9.442;2023-01-19T12:24:33;15.45;;;5.15;;
11486;SDS011;10510;47.942;9.442;2023-01-19T12:28:46;8.98;;;4.60;;
11486;SDS011;10510;47.942;9.442;2023-01-19T12:30:49;11.27;;;4.45;;
11486;SDS011;10510;47.942;9.442;2023-01-19T12:32:51;14.73;;;4.70;;
11486;SDS011;10510;47.942;9.442;2023-01-19T12:34:51;9.57;;;4.03;;
11486;SDS011;10510;47.942;9.442;2023-01-19T12:36:51;6.90;;;4.28;;
11486;SDS011;10510;47.942;9.442;2023-01-19T12:39:00;8.23;;;3.95;;
11486;SDS011;10510;47.942;9.442;2023-01-19T12:43:21;6.30;;;3.60;;
11486;SDS011;10510;47.942;9.442;2023-01-19T12:45:23;9.63;;;4.55;;
11486;SDS011;10510;47.942;9.442;2023-01-19T12:47:27;9.20;;;4.47;;